sensor_id;sensor_type;location;lat;lon;timestamp;pressure;altitude;pressure_sealevel;temperature;humidity
28935;BME280;16044;52.726;-2.108;2023-08-17T00:02:08;101157.63;;;16.25;87.70
28935;BME280;16044;52.726;-2.108;2023-08-17T00:04:39;101158.00;;;16.22;88.43
28935;BME280;16044;52.726;-2.108;2023-08-17T00:07:09;101156.53;;;16.19;88.50
28935;BME280;16044;52.726;-2.108;2023-08-17T00:09:39;101152.94;;;16.18;88.84
28935;BME280;16044;52.726;-2.108;2023-08-17T00:12:10;101152.06;;;16.18;89.01
28935;BME280;16044;52.726;-2.108;2023-08-17T00:18:24;101153.78;;;16.19;88.76
28935;BME280;16044;52.726;-2.108;2023-08-17T00:20:55;101158.41;;;16.18;89.55
28935;BME280;16044;52.726;-2.108;2023-08-17T00:23:25;101163.47;;;16.22;89.75
28935;BME280;16044;52.726;-2.108;2023-08-17T00:25:56;101150.84;;;16.21;89.79
28935;BME280;16044;52.726;-2.108;2023-08-17T00:28:26;101155.25;;;16.22;89.76
28935;BME280;16044;52.726;-2.108;2023-08-17T00:30:57;101148.13;;;16.21;89.97
28935;BME280;16044;52.726;-2.108;2023-08-17T00:33:30;101148.97;;;16.21;90.15
28935;BME280;16044;52.726;-2.108;2023-08-17T00:36:00;101150.22;;;16.18;90.54
28935;BME280;16044;52.726;-2.108;2023-08-17T00:38:30;101152.06;;;16.18;90.65
28935;BME280;16044;52.726;-2.108;2023-08-17T00:41:01;101155.03;;;16.16;90.65
28935;BME280;16044;52.726;-2.108;2023-08-17T00:43:31;101151.84;;;16.13;91.25
28935;BME280;16044;52.726;-2.108;2023-08-17T00:46:01;101158.75;;;16.09;92.33
28935;BME280;16044;52.726;-2.108;2023-08-17T00:48:35;101169.88;;;16.07;92.14
28935;BME280;16044;52.726;-2.108;2023-08-17T00:51:05;101153.66;;;16.06;92.70
28935;BME280;16044;52.726;-2.108;2023-08-17T00:53:36;101160.44;;;16.10;92.03
28935;BME280;16044;52.726;-2.108;2023-08-17T00:56:06;101156.03;;;16.09;92.49
28935;BME280;16044;52.726;-2.108;2023-08-17T00:58:37;101165.53;;;16.13;92.62
28935;BME280;16044;52.726;-2.108;2023-08-17T01:01:08;101156.25;;;16.14;92.71
28935;BME280;16044;52.726;-2.108;2023-08-17T01:03:42;101163.63;;;16.13;93.33
28935;BME280;16044;52.726;-2.108;2023-08-17T01:06:12;101160.09;;;16.20;93.61
28935;BME280;16044;52.726;-2.108;2023-08-17T01:08:43;101161.38;;;16.24;94.03
28935;BME280;16044;52.726;-2.108;2023-08-17T01:11:22;101159.31;;;16.26;94.20
28935;BME280;16044;52.726;-2.108;2023-08-17T01:14:02;101157.22;;;16.28;95.05
28935;BME280;16044;52.726;-2.108;2023-08-17T01:16:39;101154.72;;;16.33;94.81
28935;BME280;16044;52.726;-2.108;2023-08-17T01:19:24;101163.66;;;16.42;94.61
28935;BME280;16044;52.726;-2.108;2023-08-17T01:22:00;101153.16;;;16.45;94.37
28935;BME280;16044;52.726;-2.108;2023-08-17T01:24:36;101153.16;;;16.45;94.68
28935;BME280;16044;52.726;-2.108;2023-08-17T01:27:06;101151.25;;;16.46;95.14
28935;BME280;16044;52.726;-2.108;2023-08-17T01:29:37;101151.91;;;16.48;95.28
28935;BME280;16044;52.726;-2.108;2023-08-17T01:32:12;101148.97;;;16.49;95.56
28935;BME280;16044;52.726;-2.108;2023-08-17T01:34:53;101148.97;;;16.49;95.61
28935;BME280;16044;52.726;-2.108;2023-08-17T01:37:28;101146.22;;;16.49;95.94
28935;BME280;16044;52.726;-2.108;2023-08-17T01:40:05;101144.13;;;16.51;95.50
28935;BME280;16044;52.726;-2.108;2023-08-17T01:42:37;101144.13;;;16.51;95.83
28935;BME280;16044;52.726;-2.108;2023-08-17T01:45:09;101148.59;;;16.59;95.70
28935;BME280;16044;52.726;-2.108;2023-08-17T01:47:39;101151.34;;;16.59;96.16
28935;BME280;16044;52.726;-2.108;2023-08-17T01:50:10;101146.69;;;16.60;96.09
28935;BME280;16044;52.726;-2.108;2023-08-17T01:52:40;101150.94;;;16.62;96.07
28935;BME280;16044;52.726;-2.108;2023-08-17T01:55:13;101158.31;;;16.62;96.70
28935;BME280;16044;52.726;-2.108;2023-08-17T01:57:43;101156.22;;;16.64;96.68
28935;BME280;16044;52.726;-2.108;2023-08-17T02:00:15;101159.16;;;16.62;96.60
28935;BME280;16044;52.726;-2.108;2023-08-17T02:02:45;101162.53;;;16.64;96.58
28935;BME280;16044;52.726;-2.108;2023-08-17T02:05:16;101157.91;;;16.65;96.87
28935;BME280;16044;52.726;-2.108;2023-08-17T02:07:46;101158.31;;;16.62;97.47
28935;BME280;16044;52.726;-2.108;2023-08-17T02:10:19;101155.16;;;16.65;97.09
28935;BME280;16044;52.726;-2.108;2023-08-17T02:12:49;101160.84;;;16.63;97.36
28935;BME280;16044;52.726;-2.108;2023-08-17T02:15:27;101163.38;;;16.65;97.04
28935;BME280;16044;52.726;-2.108;2023-08-17T02:18:00;101161.28;;;16.67;97.77
28935;BME280;16044;52.726;-2.108;2023-08-17T02:20:31;101164.44;;;16.64;98.05
28935;BME280;16044;52.726;-2.108;2023-08-17T02:23:01;101158.31;;;16.62;98.05
28935;BME280;16044;52.726;-2.108;2023-08-17T02:25:37;101168.41;;;16.61;97.96
28935;BME280;16044;52.726;-2.108;2023-08-17T02:28:08;101162.47;;;16.57;98.21
28935;BME280;16044;52.726;-2.108;2023-08-17T02:30:38;101167.75;;;16.59;98.03
28935;BME280;16044;52.726;-2.108;2023-08-17T02:33:08;101169.03;;;16.56;98.49
28935;BME280;16044;52.726;-2.108;2023-08-17T02:35:39;101169.84;;;16.57;98.35
28935;BME280;16044;52.726;-2.108;2023-08-17T02:38:09;101168.81;;;16.58;98.69
28935;BME280;16044;52.726;-2.108;2023-08-17T02:40:42;101173.44;;;16.57;98.63
28935;BME280;16044;52.726;-2.108;2023-08-17T02:43:12;101159.97;;;16.56;98.66
28935;BME280;16044;52.726;-2.108;2023-08-17T02:45:43;101172.78;;;16.55;98.65
28935;BME280;16044;52.726;-2.108;2023-08-17T02:48:13;101165.63;;;16.54;98.38
28935;BME280;16044;52.726;-2.108;2023-08-17T02:50:43;101168.75;;;16.51;98.41
28935;BME280;16044;52.726;-2.108;2023-08-17T02:53:14;101175.06;;;16.52;98.75
28935;BME280;16044;52.726;-2.108;2023-08-17T02:55:47;101167.94;;;16.51;98.67
28935;BME280;16044;52.726;-2.108;2023-08-17T02:58:17;101166.22;;;16.50;98.63
28935;BME280;16044;52.726;-2.108;2023-08-17T03:00:50;101166.63;;;16.47;98.75
28935;BME280;16044;52.726;-2.108;2023-08-17T03:03:21;101160.75;;;16.50;98.24
28935;BME280;16044;52.726;-2.108;2023-08-17T03:05:52;101160.97;;;16.48;98.47
28935;BME280;16044;52.726;-2.108;2023-08-17T03:08:22;101163.72;;;16.48;99.12
28935;BME280;16044;52.726;-2.108;2023-08-17T03:10:55;101167.88;;;16.44;98.98
28935;BME280;16044;52.726;-2.108;2023-08-17T03:13:25;101163.66;;;16.42;98.99
28935;BME280;16044;52.726;-2.108;2023-08-17T03:15:55;101159.00;;;16.42;99.03
28935;BME280;16044;52.726;-2.108;2023-08-17T03:18:26;101156.69;;;16.39;99.18
28935;BME280;16044;52.726;-2.108;2023-08-17T03:20:56;101161.28;;;16.38;99.48
28935;BME280;16044;52.726;-2.108;2023-08-17T03:23:26;101152.63;;;16.35;99.46
28935;BME280;16044;52.726;-2.108;2023-08-17T03:25:59;101154.72;;;16.33;99.58
28935;BME280;16044;52.726;-2.108;2023-08-17T03:28:30;101155.78;;;16.32;99.64
28935;BME280;16044;52.726;-2.108;2023-08-17T03:31:00;101157.44;;;16.26;100.00
28935;BME280;16044;52.726;-2.108;2023-08-17T03:33:30;101158.44;;;16.25;99.97
28935;BME280;16044;52.726;-2.108;2023-08-17T03:36:01;101161.38;;;16.24;100.00
28935;BME280;16044;52.726;-2.108;2023-08-17T03:38:31;101150.03;;;16.20;100.00
28935;BME280;16044;52.726;-2.108;2023-08-17T03:41:04;101147.06;;;16.22;100.00
28935;BME280;16044;52.726;-2.108;2023-08-17T03:43:35;101144.97;;;16.24;100.00
28935;BME280;16044;52.726;-2.108;2023-08-17T03:46:05;101145.84;;;16.24;100.00
28935;BME280;16044;52.726;-2.108;2023-08-17T03:48:35;101139.13;;;16.27;100.00
28935;BME280;16044;52.726;-2.108;2023-08-17T03:51:06;101133.66;;;16.27;100.00
28935;BME280;16044;52.726;-2.108;2023-08-17T03:53:36;101137.03;;;16.29;100.00
28935;BME280;16044;52.726;-2.108;2023-08-17T03:56:09;101126.91;;;16.29;100.00
28935;BME280;16044;52.726;-2.108;2023-08-17T03:58:40;101141.66;;;16.28;100.00
28935;BME280;16044;52.726;-2.108;2023-08-17T04:01:11;101133.25;;;16.30;100.00
28935;BME280;16044;52.726;-2.108;2023-08-17T04:03:41;101140.00;;;16.34;100.00
28935;BME280;16044;52.726;-2.108;2023-08-17T04:06:11;101134.09;;;16.30;100.00
28935;BME280;16044;52.726;-2.108;2023-08-17T04:08:42;101137.28;;;16.34;100.00
28935;BME280;16044;52.726;-2.108;2023-08-17T04:11:15;101134.53;;;16.34;100.00
28935;BME280;16044;52.726;-2.108;2023-08-17T04:13:45;101131.81;;;16.34;100.00
28935;BME280;16044;52.726;-2.108;2023-08-17T04:16:16;101133.47;;;16.35;100.00
28935;BME280;16044;52.726;-2.108;2023-08-17T04:18:46;101133.47;;;16.35;100.00
28935;BME280;16044;52.726;-2.108;2023-08-17T04:21:16;101138.13;;;16.34;100.00
28935;BME280;16044;52.726;-2.108;2023-08-17T04:23:47;101137.53;;;16.39;100.00
28935;BME280;16044;52.726;-2.108;2023-08-17T04:26:20;101138.56;;;16.38;100.00
28935;BME280;16044;52.726;-2.108;2023-08-17T04:28:50;101137.28;;;16.34;100.00
28935;BME280;16044;52.726;-2.108;2023-08-17T04:31:21;101136.22;;;16.35;100.00
28935;BME280;16044;52.726;-2.108;2023-08-17T04:33:51;101146.78;;;16.38;100.00
28935;BME280;16044;52.726;-2.108;2023-08-17T04:36:22;101141.94;;;16.40;100.00
28935;BME280;16044;52.726;-2.108;2023-08-17T04:38:52;101145.75;;;16.39;100.00
28935;BME280;16044;52.726;-2.108;2023-08-17T04:41:25;101145.94;;;16.37;100.00
28935;BME280;16044;52.726;-2.108;2023-08-17T04:43:55;101139.81;;;16.35;100.00
28935;BME280;16044;52.726;-2.108;2023-08-17T04:46:26;101142.38;;;16.37;100.00
28935;BME280;16044;52.726;-2.108;2023-08-17T04:48:56;101131.81;;;16.34;100.00
28935;BME280;16044;52.726;-2.108;2023-08-17T04:51:26;101133.28;;;16.36;100.00
28935;BME280;16044;52.726;-2.108;2023-08-17T04:53:57;101133.72;;;16.33;100.00
28935;BME280;16044;52.726;-2.108;2023-08-17T04:56:29;101136.81;;;16.30;100.00
28935;BME280;16044;52.726;-2.108;2023-08-17T04:59:00;101134.09;;;16.30;100.00
28935;BME280;16044;52.726;-2.108;2023-08-17T05:01:30;101130.31;;;16.31;100.00
28935;BME280;16044;52.726;-2.108;2023-08-17T05:04:00;101134.28;;;16.29;100.00
28935;BME280;16044;52.726;-2.108;2023-08-17T05:06:31;101135.53;;;16.26;100.00
28935;BME280;16044;52.726;-2.108;2023-08-17T05:09:01;101142.91;;;16.26;100.00
28935;BME280;16044;52.726;-2.108;2023-08-17T05:11:35;101133.66;;;16.27;100.00
28935;BME280;16044;52.726;-2.108;2023-08-17T05:14:06;101136.38;;;16.27;100.00
28935;BME280;16044;52.726;-2.108;2023-08-17T05:16:36;101136.19;;;16.28;100.00
28935;BME280;16044;52.726;-2.108;2023-08-17T05:19:06;101135.94;;;16.23;100.00
28935;BME280;16044;52.726;-2.108;2023-08-17T05:21:36;101142.91;;;16.26;100.00
28935;BME280;16044;52.726;-2.108;2023-08-17T05:24:07;101142.91;;;16.26;100.00
28935;BME280;16044;52.726;-2.108;2023-08-17T05:26:40;101151.75;;;16.28;100.00
28935;BME280;16044;52.726;-2.108;2023-08-17T05:29:10;101147.31;;;16.27;100.00
28935;BME280;16044;52.726;-2.108;2023-08-17T05:31:41;101154.69;;;16.26;100.00
28935;BME280;16044;52.726;-2.108;2023-08-17T05:34:11;101155.16;;;16.30;100.00
28935;BME280;16044;52.726;-2.108;2023-08-17T05:36:41;101155.16;;;16.30;100.00
28935;BME280;16044;52.726;-2.108;2023-08-17T05:39:12;101161.44;;;16.30;100.00
28935;BME280;16044;52.726;-2.108;2023-08-17T05:41:45;101158.91;;;16.29;100.00
28935;BME280;16044;52.726;-2.108;2023-08-17T05:44:15;101162.94;;;16.33;100.00
28935;BME280;16044;52.726;-2.108;2023-08-17T05:46:46;101164.44;;;16.35;100.00
28935;BME280;16044;52.726;-2.108;2023-08-17T05:49:16;101159.81;;;16.36;100.00
28935;BME280;16044;52.726;-2.108;2023-08-17T05:51:46;101157.28;;;16.34;100.00
28935;BME280;16044;52.726;-2.108;2023-08-17T05:54:16;101157.72;;;16.38;100.00
28935;BME280;16044;52.726;-2.108;2023-08-17T05:56:49;101158.97;;;16.35;100.00
28935;BME280;16044;52.726;-2.108;2023-08-17T05:59:20;101156.88;;;16.37;100.00
28935;BME280;16044;52.726;-2.108;2023-08-17T06:01:50;101162.81;;;16.41;100.00
28935;BME280;16044;52.726;-2.108;2023-08-17T06:04:20;101157.97;;;16.43;100.00
28935;BME280;16044;52.726;-2.108;2023-08-17T06:06:51;101163.25;;;16.45;100.00
28935;BME280;16044;52.726;-2.108;2023-08-17T06:09:21;101154.41;;;16.43;100.00
28935;BME280;16044;52.726;-2.108;2023-08-17T06:11:54;101161.56;;;16.44;100.00
28935;BME280;16044;52.726;-2.108;2023-08-17T06:14:24;101154.19;;;16.44;100.00
28935;BME280;16044;52.726;-2.108;2023-08-17T06:16:54;101150.81;;;16.42;100.00
28935;BME280;16044;52.726;-2.108;2023-08-17T06:19:25;101147.94;;;16.50;100.00
28935;BME280;16044;52.726;-2.108;2023-08-17T06:21:55;101145.19;;;16.50;100.00
28935;BME280;16044;52.726;-2.108;2023-08-17T06:24:25;101155.91;;;16.52;100.00
28935;BME280;16044;52.726;-2.108;2023-08-17T06:26:58;101155.72;;;16.53;100.00
28935;BME280;16044;52.726;-2.108;2023-08-17T06:29:29;101158.06;;;16.56;100.00
28935;BME280;16044;52.726;-2.108;2023-08-17T06:31:59;101158.31;;;16.62;100.00
28935;BME280;16044;52.726;-2.108;2023-08-17T06:34:29;101167.19;;;16.64;100.00
28935;BME280;16044;52.726;-2.108;2023-08-17T06:37:03;101158.81;;;16.72;100.00
28935;BME280;16044;52.726;-2.108;2023-08-17T06:39:34;101172.75;;;16.77;100.00
28935;BME280;16044;52.726;-2.108;2023-08-17T06:42:07;101170.06;;;16.84;100.00
28935;BME280;16044;52.726;-2.108;2023-08-17T06:44:37;101174.94;;;16.88;100.00
28935;BME280;16044;52.726;-2.108;2023-08-17T06:47:07;101174.97;;;16.95;100.00
28935;BME280;16044;52.726;-2.108;2023-08-17T06:49:38;101171.41;;;16.94;100.00
28935;BME280;16044;52.726;-2.108;2023-08-17T06:52:08;101171.03;;;17.04;100.00
28935;BME280;16044;52.726;-2.108;2023-08-17T06:54:38;101170.00;;;17.12;100.00
28935;BME280;16044;52.726;-2.108;2023-08-17T06:57:11;101172.59;;;17.20;100.00
28935;BME280;16044;52.726;-2.108;2023-08-17T06:59:42;101167.75;;;17.29;100.00
28935;BME280;16044;52.726;-2.108;2023-08-17T07:02:12;101164.44;;;17.40;99.28
28935;BME280;16044;52.726;-2.108;2023-08-17T07:04:43;101161.94;;;17.52;99.00
28935;BME280;16044;52.726;-2.108;2023-08-17T07:07:14;101164.50;;;17.67;98.77
28935;BME280;16044;52.726;-2.108;2023-08-17T07:09:44;101161.59;;;17.82;97.58
28935;BME280;16044;52.726;-2.108;2023-08-17T07:12:17;101157.84;;;17.96;96.39
28935;BME280;16044;52.726;-2.108;2023-08-17T07:14:47;101157.88;;;18.09;95.49
28935;BME280;16044;52.726;-2.108;2023-08-17T07:17:18;101160.19;;;18.26;95.16
28935;BME280;16044;52.726;-2.108;2023-08-17T07:19:48;101158.91;;;18.42;92.56
28935;BME280;16044;52.726;-2.108;2023-08-17T07:22:38;101157.84;;;18.63;91.78
28935;BME280;16044;52.726;-2.108;2023-08-17T07:25:09;101156.97;;;18.89;92.00
28935;BME280;16044;52.726;-2.108;2023-08-17T07:27:42;101158.78;;;19.15;90.90
28935;BME280;16044;52.726;-2.108;2023-08-17T07:30:13;101155.31;;;19.33;88.53
28935;BME280;16044;52.726;-2.108;2023-08-17T07:32:43;101159.03;;;19.52;88.22
28935;BME280;16044;52.726;-2.108;2023-08-17T07:35:14;101154.66;;;19.83;86.99
28935;BME280;16044;52.726;-2.108;2023-08-17T07:37:47;101148.72;;;20.11;84.96
28935;BME280;16044;52.726;-2.108;2023-08-17T07:40:34;101158.06;;;20.35;83.36
28935;BME280;16044;52.726;-2.108;2023-08-17T07:43:07;101155.41;;;20.47;81.07
28935;BME280;16044;52.726;-2.108;2023-08-17T07:45:37;101154.50;;;20.53;80.59
28935;BME280;16044;52.726;-2.108;2023-08-17T07:48:08;101157.38;;;20.65;80.20
28935;BME280;16044;52.726;-2.108;2023-08-17T07:50:38;101156.03;;;20.74;79.32
28935;BME280;16044;52.726;-2.108;2023-08-17T07:53:08;101155.72;;;20.82;77.44
28935;BME280;16044;52.726;-2.108;2023-08-17T07:55:39;101153.56;;;20.84;76.07
28935;BME280;16044;52.726;-2.108;2023-08-17T07:58:12;101147.66;;;20.81;75.14
28935;BME280;16044;52.726;-2.108;2023-08-17T08:00:42;101151.50;;;20.80;74.78
28935;BME280;16044;52.726;-2.108;2023-08-17T08:03:14;101159.44;;;20.70;74.94
28935;BME280;16044;52.726;-2.108;2023-08-17T08:05:44;101149.13;;;20.65;74.85
28935;BME280;16044;52.726;-2.108;2023-08-17T08:08:15;101150.06;;;20.52;75.20
28935;BME280;16044;52.726;-2.108;2023-08-17T08:10:47;101149.44;;;20.50;75.11
28935;BME280;16044;52.726;-2.108;2023-08-17T08:13:19;101152.03;;;20.45;75.37
28935;BME280;16044;52.726;-2.108;2023-08-17T08:15:50;101140.56;;;20.48;75.54
28935;BME280;16044;52.726;-2.108;2023-08-17T08:18:21;101139.25;;;20.51;75.43
28935;BME280;16044;52.726;-2.108;2023-08-17T08:20:51;101149.75;;;20.67;75.30
28935;BME280;16044;52.726;-2.108;2023-08-17T08:23:21;101136.41;;;20.64;74.36
28935;BME280;16044;52.726;-2.108;2023-08-17T08:25:53;101138.88;;;20.72;74.24
28935;BME280;16044;52.726;-2.108;2023-08-17T08:28:27;101133.97;;;20.74;74.56
28935;BME280;16044;52.726;-2.108;2023-08-17T08:31:01;101130.84;;;20.89;74.49
28935;BME280;16044;52.726;-2.108;2023-08-17T08:33:32;101144.31;;;20.97;74.39
28935;BME280;16044;52.726;-2.108;2023-08-17T08:36:02;101146.16;;;21.03;73.64
28935;BME280;16044;52.726;-2.108;2023-08-17T08:38:33;101140.03;;;21.01;73.48
28935;BME280;16044;52.726;-2.108;2023-08-17T08:41:05;101143.66;;;21.02;73.24
28935;BME280;16044;52.726;-2.108;2023-08-17T08:43:40;101135.72;;;21.06;73.43
28935;BME280;16044;52.726;-2.108;2023-08-17T08:46:13;101139.34;;;21.06;73.13
28935;BME280;16044;52.726;-2.108;2023-08-17T08:48:50;101148.50;;;21.00;72.72
28935;BME280;16044;52.726;-2.108;2023-08-17T08:51:26;101153.19;;;20.99;73.17
28935;BME280;16044;52.726;-2.108;2023-08-17T08:54:01;101149.91;;;20.91;73.58
28935;BME280;16044;52.726;-2.108;2023-08-17T08:56:35;101139.25;;;20.94;73.92
28935;BME280;16044;52.726;-2.108;2023-08-17T08:59:16;101137.88;;;21.03;74.00
28935;BME280;16044;52.726;-2.108;2023-08-17T09:01:49;101139.56;;;21.05;73.77
28935;BME280;16044;52.726;-2.108;2023-08-17T09:04:20;101137.50;;;21.00;73.62
28935;BME280;16044;52.726;-2.108;2023-08-17T09:06:51;101140.78;;;20.90;72.75
28935;BME280;16044;52.726;-2.108;2023-08-17T09:09:21;101134.97;;;20.80;73.51
28935;BME280;16044;52.726;-2.108;2023-08-17T09:11:56;101132.44;;;20.78;73.93
28935;BME280;16044;52.726;-2.108;2023-08-17T09:14:29;101128.31;;;20.88;74.12
28935;BME280;16044;52.726;-2.108;2023-08-17T09:16:59;101132.53;;;20.90;73.64
28935;BME280;16044;52.726;-2.108;2023-08-17T09:19:31;101129.00;;;21.01;74.27
28935;BME280;16044;52.726;-2.108;2023-08-17T09:22:02;101131.81;;;21.13;74.08
28935;BME280;16044;52.726;-2.108;2023-08-17T09:24:35;101128.00;;;21.14;72.43
28935;BME280;16044;52.726;-2.108;2023-08-17T09:27:11;101131.53;;;21.21;72.74
28935;BME280;16044;52.726;-2.108;2023-08-17T09:29:45;101123.16;;;21.28;72.86
28935;BME280;16044;52.726;-2.108;2023-08-17T09:32:15;101127.03;;;21.39;72.32
28935;BME280;16044;52.726;-2.108;2023-08-17T09:34:46;101118.75;;;21.57;72.34
28935;BME280;16044;52.726;-2.108;2023-08-17T09:37:16;101124.69;;;21.73;70.78
28935;BME280;16044;52.726;-2.108;2023-08-17T09:39:46;101124.09;;;21.83;69.92
28935;BME280;16044;52.726;-2.108;2023-08-17T09:42:17;101122.78;;;21.85;69.53
28935;BME280;16044;52.726;-2.108;2023-08-17T09:44:51;101119.56;;;21.88;69.51
28935;BME280;16044;52.726;-2.108;2023-08-17T09:47:22;101124.47;;;21.86;68.95
28935;BME280;16044;52.726;-2.108;2023-08-17T09:49:54;101116.78;;;21.76;68.72
28935;BME280;16044;52.726;-2.108;2023-08-17T09:52:25;101112.91;;;21.66;68.88
28935;BME280;16044;52.726;-2.108;2023-08-17T09:54:56;101117.56;;;21.53;69.20
28935;BME280;16044;52.726;-2.108;2023-08-17T09:57:34;101114.34;;;21.38;69.73
28935;BME280;16044;52.726;-2.108;2023-08-17T10:00:09;101112.69;;;21.18;70.69
28935;BME280;16044;52.726;-2.108;2023-08-17T10:02:42;101115.28;;;21.13;71.07
28935;BME280;16044;52.726;-2.108;2023-08-17T10:05:17;101120.94;;;21.18;72.15
28935;BME280;16044;52.726;-2.108;2023-08-17T10:07:54;101110.88;;;21.42;72.12
28935;BME280;16044;52.726;-2.108;2023-08-17T10:10:27;101110.00;;;21.60;71.53
28935;BME280;16044;52.726;-2.108;2023-08-17T10:13:07;101118.22;;;21.79;70.39
28935;BME280;16044;52.726;-2.108;2023-08-17T10:15:47;101112.22;;;21.82;69.92
28935;BME280;16044;52.726;-2.108;2023-08-17T10:18:29;101106.22;;;21.85;69.63
28935;BME280;16044;52.726;-2.108;2023-08-17T10:21:07;101114.75;;;21.84;69.11
28935;BME280;16044;52.726;-2.108;2023-08-17T10:23:42;101094.34;;;21.85;68.91
28935;BME280;16044;52.726;-2.108;2023-08-17T10:26:14;101109.31;;;21.77;69.46
28935;BME280;16044;52.726;-2.108;2023-08-17T10:28:45;101106.22;;;21.85;69.08
28935;BME280;16044;52.726;-2.108;2023-08-17T10:31:19;101095.81;;;21.87;69.69
28935;BME280;16044;52.726;-2.108;2023-08-17T10:33:50;101101.06;;;21.89;69.30
28935;BME280;16044;52.726;-2.108;2023-08-17T10:36:21;101100.34;;;21.82;69.50
28935;BME280;16044;52.726;-2.108;2023-08-17T10:39:19;101104.75;;;21.71;70.05
28935;BME280;16044;52.726;-2.108;2023-08-17T10:41:55;101102.38;;;21.74;70.16
28935;BME280;16044;52.726;-2.108;2023-08-17T10:44:43;101099.41;;;21.88;70.67
28935;BME280;16044;52.726;-2.108;2023-08-17T10:47:27;101099.56;;;22.05;69.73
28935;BME280;16044;52.726;-2.108;2023-08-17T10:50:04;101093.59;;;22.31;69.19
28935;BME280;16044;52.726;-2.108;2023-08-17T10:52:36;101096.59;;;22.53;68.16
28935;BME280;16044;52.726;-2.108;2023-08-17T10:55:08;101098.34;;;22.71;66.71
28935;BME280;16044;52.726;-2.108;2023-08-17T10:57:40;101100.03;;;22.84;65.90
28935;BME280;16044;52.726;-2.108;2023-08-17T11:00:16;101095.84;;;22.82;64.56
28935;BME280;16044;52.726;-2.108;2023-08-17T11:02:58;101092.59;;;22.73;64.70
28935;BME280;16044;52.726;-2.108;2023-08-17T11:05:40;101092.72;;;22.66;64.61
28935;BME280;16044;52.726;-2.108;2023-08-17T11:08:20;101087.19;;;22.66;65.64
28935;BME280;16044;52.726;-2.108;2023-08-17T11:11:01;101089.69;;;22.80;65.47
28935;BME280;16044;52.726;-2.108;2023-08-17T11:13:33;101095.22;;;22.80;64.72
28935;BME280;16044;52.726;-2.108;2023-08-17T11:16:06;101091.41;;;22.69;64.57
28935;BME280;16044;52.726;-2.108;2023-08-17T11:18:42;101090.44;;;22.63;65.35
28935;BME280;16044;52.726;-2.108;2023-08-17T11:21:13;101092.72;;;22.54;65.48
28935;BME280;16044;52.726;-2.108;2023-08-17T11:23:46;101087.94;;;22.50;65.25
28935;BME280;16044;52.726;-2.108;2023-08-17T11:26:17;101099.22;;;22.60;65.93
28935;BME280;16044;52.726;-2.108;2023-08-17T11:28:47;101086.13;;;22.67;66.02
28935;BME280;16044;52.726;-2.108;2023-08-17T11:31:18;101100.75;;;22.80;66.34
28935;BME280;16044;52.726;-2.108;2023-08-17T11:33:51;101089.41;;;22.93;64.76
28935;BME280;16044;52.726;-2.108;2023-08-17T11:36:22;101088.31;;;23.06;64.31
28935;BME280;16044;52.726;-2.108;2023-08-17T11:38:53;101089.09;;;23.30;64.46
28935;BME280;16044;52.726;-2.108;2023-08-17T11:41:23;101085.03;;;23.49;64.23
28935;BME280;16044;52.726;-2.108;2023-08-17T11:43:54;101082.81;;;23.63;62.22
28935;BME280;16044;52.726;-2.108;2023-08-17T11:46:26;101089.34;;;23.74;62.58
28935;BME280;16044;52.726;-2.108;2023-08-17T11:49:01;101078.25;;;23.74;60.98
28935;BME280;16044;52.726;-2.108;2023-08-17T11:51:32;101067.53;;;23.78;59.92
28935;BME280;16044;52.726;-2.108;2023-08-17T11:54:02;101071.25;;;23.83;60.05
28935;BME280;16044;52.726;-2.108;2023-08-17T11:56:34;101068.59;;;23.88;60.32
28935;BME280;16044;52.726;-2.108;2023-08-17T11:59:11;101087.03;;;24.00;59.57
28935;BME280;16044;52.726;-2.108;2023-08-17T12:01:45;101077.81;;;23.94;58.37
28935;BME280;16044;52.726;-2.108;2023-08-17T12:04:21;101072.03;;;23.96;58.85
28935;BME280;16044;52.726;-2.108;2023-08-17T12:06:51;101062.56;;;23.91;58.82
28935;BME280;16044;52.726;-2.108;2023-08-17T12:09:22;101074.03;;;23.83;57.05
28935;BME280;16044;52.726;-2.108;2023-08-17T12:11:58;101060.72;;;23.80;56.23
28935;BME280;16044;52.726;-2.108;2023-08-17T12:14:30;101059.84;;;23.80;56.72
28935;BME280;16044;52.726;-2.108;2023-08-17T12:17:00;101060.53;;;23.87;57.18
28935;BME280;16044;52.726;-2.108;2023-08-17T12:19:33;101060.03;;;23.90;55.68
28935;BME280;16044;52.726;-2.108;2023-08-17T12:22:03;101058.78;;;23.81;54.59
28935;BME280;16044;52.726;-2.108;2023-08-17T12:24:34;101048.53;;;23.81;55.76
28935;BME280;16044;52.726;-2.108;2023-08-17T12:27:05;101044.69;;;23.82;55.78
28935;BME280;16044;52.726;-2.108;2023-08-17T12:29:46;101046.88;;;23.68;55.35
28935;BME280;16044;52.726;-2.108;2023-08-17T12:32:18;101050.44;;;23.64;54.96
28935;BME280;16044;52.726;-2.108;2023-08-17T12:34:52;101034.50;;;23.71;55.04
28935;BME280;16044;52.726;-2.108;2023-08-17T12:37:22;101037.06;;;23.89;55.05
28935;BME280;16044;52.726;-2.108;2023-08-17T12:39:53;101025.69;;;23.91;52.69
28935;BME280;16044;52.726;-2.108;2023-08-17T12:42:23;101020.94;;;23.86;51.91
28935;BME280;16044;52.726;-2.108;2023-08-17T12:44:54;101015.97;;;23.88;52.83
28935;BME280;16044;52.726;-2.108;2023-08-17T12:47:24;101014.38;;;23.92;52.86
28935;BME280;16044;52.726;-2.108;2023-08-17T12:50:03;101005.66;;;24.01;52.24
28935;BME280;16044;52.726;-2.108;2023-08-17T12:52:34;101002.44;;;24.09;51.97
28935;BME280;16044;52.726;-2.108;2023-08-17T12:55:05;100996.22;;;24.19;51.59
28935;BME280;16044;52.726;-2.108;2023-08-17T12:57:35;101002.41;;;24.26;50.93
28935;BME280;16044;52.726;-2.108;2023-08-17T13:00:07;100992.50;;;24.30;50.46
28935;BME280;16044;52.726;-2.108;2023-08-17T13:02:38;101001.06;;;24.28;50.80
28935;BME280;16044;52.726;-2.108;2023-08-17T13:05:11;100992.25;;;24.31;50.08
28935;BME280;16044;52.726;-2.108;2023-08-17T13:07:39;100987.94;;;24.41;49.92